< < Back
Terminal Aerodrome Forecast


Current Version              Previous Versions:   1  2  3  4  5  6  7  8  9  

Terminal Aerodrome Forecast

064
FTUS42 KMLB 010902 AAA
TAFMCO
TAF AMD
KMCO 010902Z 0109/0206 25006KT P6SM FEW008 SCT250
     FM011300 28011KT P6SM SCT040 BKN250
     FM020000 30006KT P6SM FEW070 BKN250=



Latest METAR

010
SAUS70 KWBC 011000 RRX
MTRMCO
METAR KMCO 010953Z 25006KT 10SM CLR 18/17 A3007 RMK AO2 SLP181
T01830172


USA.gov is the U.S. government's official web portal to all federal, state and local government web resources and services.